Proyecto Veve Calzada 3, Puerto Rico
Current Conditions -  °F | °C
As of 7:53 AM on Friday 24 Oct 2014 (Local Time) from TJNR Reporting Station
Few Clouds Few Clouds  
Wind Chill: 85°   Ceiling: Unl
Heat Index: 95°   Visibility: 10mi
Dew Point: 77°   Wind: 9mph
Humidity: 77%   Direction: 140°SE
Pressure: 29.97"   Gusts: NA
Location:  18.3304°N, 65.6573°W
Report Text: TJNR 241153Z AUTO 14008KT 10SM FEW017 29/25 A2997 RMK AO2 SLP150 T02940250 10294 20256 51016
Loading
Personal Weather Stations






























Interactive Weather Map
Tropical Storm Tracking
New forecast layout! Learn more

10-Day Weather Forecast

Advertisements
Track Severe Weather on mobile